sensor_id;sensor_type;location;lat;lon;timestamp;P1;durP1;ratioP1;P2;durP2;ratioP2
41711;SDS011;27399;51.516;13.670;2022-10-16T00:01:32;6.65;;;1.92;;
41711;SDS011;27399;51.516;13.670;2022-10-16T00:03:58;3.67;;;2.60;;
41711;SDS011;27399;51.516;13.670;2022-10-16T00:06:26;3.38;;;2.00;;
41711;SDS011;27399;51.516;13.670;2022-10-16T00:08:52;3.35;;;2.00;;
41711;SDS011;27399;51.516;13.670;2022-10-16T00:11:22;2.28;;;1.90;;
41711;SDS011;27399;51.516;13.670;2022-10-16T00:13:58;2.28;;;1.50;;
41711;SDS011;27399;51.516;13.670;2022-10-16T00:16:25;13.00;;;2.20;;
41711;SDS011;27399;51.516;13.670;2022-10-16T00:18:51;6.13;;;2.10;;
41711;SDS011;27399;51.516;13.670;2022-10-16T00:21:19;6.68;;;1.90;;
41711;SDS011;27399;51.516;13.670;2022-10-16T00:23:46;13.23;;;2.30;;
41711;SDS011;27399;51.516;13.670;2022-10-16T00:26:15;14.15;;;2.50;;
41711;SDS011;27399;51.516;13.670;2022-10-16T00:28:41;9.80;;;2.33;;
41711;SDS011;27399;51.516;13.670;2022-10-16T00:31:08;5.68;;;1.70;;
41711;SDS011;27399;51.516;13.670;2022-10-16T00:33:36;9.77;;;1.90;;
41711;SDS011;27399;51.516;13.670;2022-10-16T00:36:03;3.28;;;2.15;;
41711;SDS011;27399;51.516;13.670;2022-10-16T00:38:30;7.63;;;2.10;;
41711;SDS011;27399;51.516;13.670;2022-10-16T00:40:55;12.80;;;2.22;;
41711;SDS011;27399;51.516;13.670;2022-10-16T00:46:14;11.18;;;2.30;;
41711;SDS011;27399;51.516;13.670;2022-10-16T00:48:54;14.20;;;2.05;;
41711;SDS011;27399;51.516;13.670;2022-10-16T00:51:42;11.77;;;1.90;;
41711;SDS011;27399;51.516;13.670;2022-10-16T00:54:12;8.15;;;1.75;;
41711;SDS011;27399;51.516;13.670;2022-10-16T00:56:40;7.65;;;2.40;;
41711;SDS011;27399;51.516;13.670;2022-10-16T00:59:08;2.95;;;2.08;;
41711;SDS011;27399;51.516;13.670;2022-10-16T01:01:40;6.90;;;2.03;;
41711;SDS011;27399;51.516;13.670;2022-10-16T01:04:06;4.65;;;2.08;;
41711;SDS011;27399;51.516;13.670;2022-10-16T01:09:17;7.47;;;1.88;;
41711;SDS011;27399;51.516;13.670;2022-10-16T01:12:10;4.03;;;2.05;;
41711;SDS011;27399;51.516;13.670;2022-10-16T01:14:56;14.73;;;2.70;;
41711;SDS011;27399;51.516;13.670;2022-10-16T01:20:42;13.80;;;1.98;;
41711;SDS011;27399;51.516;13.670;2022-10-16T01:23:27;3.33;;;1.90;;
41711;SDS011;27399;51.516;13.670;2022-10-16T01:28:32;3.95;;;2.20;;
41711;SDS011;27399;51.516;13.670;2022-10-16T01:31:03;4.25;;;2.42;;
41711;SDS011;27399;51.516;13.670;2022-10-16T01:33:32;3.53;;;2.08;;
41711;SDS011;27399;51.516;13.670;2022-10-16T01:36:06;2.55;;;2.20;;
41711;SDS011;27399;51.516;13.670;2022-10-16T01:38:47;3.08;;;2.00;;
41711;SDS011;27399;51.516;13.670;2022-10-16T01:41:30;2.83;;;2.08;;
41711;SDS011;27399;51.516;13.670;2022-10-16T01:46:29;4.20;;;2.03;;
41711;SDS011;27399;51.516;13.670;2022-10-16T01:48:57;4.63;;;1.98;;
41711;SDS011;27399;51.516;13.670;2022-10-16T01:51:24;6.80;;;1.95;;
41711;SDS011;27399;51.516;13.670;2022-10-16T01:53:54;3.85;;;2.45;;
41711;SDS011;27399;51.516;13.670;2022-10-16T01:56:22;3.15;;;1.75;;
41711;SDS011;27399;51.516;13.670;2022-10-16T01:58:54;4.00;;;2.15;;
41711;SDS011;27399;51.516;13.670;2022-10-16T02:01:24;6.95;;;1.75;;
41711;SDS011;27399;51.516;13.670;2022-10-16T02:03:54;2.83;;;1.60;;
41711;SDS011;27399;51.516;13.670;2022-10-16T02:06:23;4.27;;;1.70;;
41711;SDS011;27399;51.516;13.670;2022-10-16T02:08:50;3.08;;;1.70;;
41711;SDS011;27399;51.516;13.670;2022-10-16T02:11:15;10.13;;;1.73;;
41711;SDS011;27399;51.516;13.670;2022-10-16T02:13:51;4.13;;;1.73;;
41711;SDS011;27399;51.516;13.670;2022-10-16T02:16:20;3.60;;;1.58;;
41711;SDS011;27399;51.516;13.670;2022-10-16T02:18:46;4.38;;;1.75;;
41711;SDS011;27399;51.516;13.670;2022-10-16T02:26:45;2.65;;;1.55;;
41711;SDS011;27399;51.516;13.670;2022-10-16T02:29:20;6.50;;;1.40;;
41711;SDS011;27399;51.516;13.670;2022-10-16T02:31:50;17.52;;;2.28;;
41711;SDS011;27399;51.516;13.670;2022-10-16T02:34:21;4.68;;;1.80;;
41711;SDS011;27399;51.516;13.670;2022-10-16T02:36:50;4.93;;;2.50;;
41711;SDS011;27399;51.516;13.670;2022-10-16T02:39:18;7.07;;;1.50;;
41711;SDS011;27399;51.516;13.670;2022-10-16T02:41:45;2.33;;;1.67;;
41711;SDS011;27399;51.516;13.670;2022-10-16T02:44:11;2.08;;;1.15;;
41711;SDS011;27399;51.516;13.670;2022-10-16T02:46:36;2.03;;;1.23;;
41711;SDS011;27399;51.516;13.670;2022-10-16T02:49:02;2.05;;;1.20;;
41711;SDS011;27399;51.516;13.670;2022-10-16T02:51:28;2.90;;;1.52;;
41711;SDS011;27399;51.516;13.670;2022-10-16T02:53:53;3.42;;;1.38;;
41711;SDS011;27399;51.516;13.670;2022-10-16T02:56:19;3.90;;;1.35;;
41711;SDS011;27399;51.516;13.670;2022-10-16T02:58:44;1.95;;;1.20;;
41711;SDS011;27399;51.516;13.670;2022-10-16T03:01:10;2.38;;;1.40;;
41711;SDS011;27399;51.516;13.670;2022-10-16T03:03:37;15.45;;;2.35;;
41711;SDS011;27399;51.516;13.670;2022-10-16T03:06:04;10.93;;;2.28;;
41711;SDS011;27399;51.516;13.670;2022-10-16T03:08:30;11.02;;;1.98;;
41711;SDS011;27399;51.516;13.670;2022-10-16T03:10:56;7.72;;;1.88;;
41711;SDS011;27399;51.516;13.670;2022-10-16T03:13:22;8.45;;;1.77;;
41711;SDS011;27399;51.516;13.670;2022-10-16T03:15:47;8.93;;;1.70;;
41711;SDS011;27399;51.516;13.670;2022-10-16T03:18:13;12.68;;;1.73;;
41711;SDS011;27399;51.516;13.670;2022-10-16T03:20:38;14.73;;;2.20;;
41711;SDS011;27399;51.516;13.670;2022-10-16T03:23:04;11.38;;;1.83;;
41711;SDS011;27399;51.516;13.670;2022-10-16T03:25:30;7.70;;;1.80;;
41711;SDS011;27399;51.516;13.670;2022-10-16T03:27:55;11.45;;;2.08;;
41711;SDS011;27399;51.516;13.670;2022-10-16T03:30:21;18.50;;;2.40;;
41711;SDS011;27399;51.516;13.670;2022-10-16T03:32:47;27.65;;;2.55;;
41711;SDS011;27399;51.516;13.670;2022-10-16T03:35:12;15.95;;;2.50;;
41711;SDS011;27399;51.516;13.670;2022-10-16T03:37:38;16.00;;;2.50;;
41711;SDS011;27399;51.516;13.670;2022-10-16T03:40:04;18.10;;;2.40;;
41711;SDS011;27399;51.516;13.670;2022-10-16T03:42:30;13.15;;;2.13;;
41711;SDS011;27399;51.516;13.670;2022-10-16T03:44:56;4.50;;;2.10;;
41711;SDS011;27399;51.516;13.670;2022-10-16T03:47:21;7.50;;;1.85;;
41711;SDS011;27399;51.516;13.670;2022-10-16T03:49:49;2.47;;;1.63;;
41711;SDS011;27399;51.516;13.670;2022-10-16T03:52:14;9.48;;;2.03;;
41711;SDS011;27399;51.516;13.670;2022-10-16T03:54:40;13.57;;;1.92;;
41711;SDS011;27399;51.516;13.670;2022-10-16T03:57:06;8.27;;;1.73;;
41711;SDS011;27399;51.516;13.670;2022-10-16T03:59:31;21.05;;;2.67;;
41711;SDS011;27399;51.516;13.670;2022-10-16T04:01:57;15.85;;;2.17;;
41711;SDS011;27399;51.516;13.670;2022-10-16T04:04:23;7.75;;;1.80;;
41711;SDS011;27399;51.516;13.670;2022-10-16T04:06:50;17.95;;;2.15;;
41711;SDS011;27399;51.516;13.670;2022-10-16T04:09:15;9.20;;;2.00;;
41711;SDS011;27399;51.516;13.670;2022-10-16T04:11:41;15.02;;;2.08;;
41711;SDS011;27399;51.516;13.670;2022-10-16T04:14:07;20.02;;;2.30;;
41711;SDS011;27399;51.516;13.670;2022-10-16T04:16:32;20.23;;;2.13;;
41711;SDS011;27399;51.516;13.670;2022-10-16T04:18:58;14.50;;;2.38;;
41711;SDS011;27399;51.516;13.670;2022-10-16T04:21:23;12.75;;;2.65;;
41711;SDS011;27399;51.516;13.670;2022-10-16T04:23:49;8.68;;;1.73;;
41711;SDS011;27399;51.516;13.670;2022-10-16T04:26:15;26.35;;;2.63;;
41711;SDS011;27399;51.516;13.670;2022-10-16T04:28:40;21.92;;;2.35;;
41711;SDS011;27399;51.516;13.670;2022-10-16T04:31:06;19.05;;;2.10;;
41711;SDS011;27399;51.516;13.670;2022-10-16T04:33:32;9.10;;;1.80;;
41711;SDS011;27399;51.516;13.670;2022-10-16T04:36:01;17.98;;;2.10;;
41711;SDS011;27399;51.516;13.670;2022-10-16T04:38:28;11.00;;;2.33;;
41711;SDS011;27399;51.516;13.670;2022-10-16T04:40:54;11.27;;;1.70;;
41711;SDS011;27399;51.516;13.670;2022-10-16T04:43:20;9.05;;;1.48;;
41711;SDS011;27399;51.516;13.670;2022-10-16T04:45:46;15.07;;;2.00;;
41711;SDS011;27399;51.516;13.670;2022-10-16T04:48:11;6.88;;;1.63;;
41711;SDS011;27399;51.516;13.670;2022-10-16T04:50:37;9.38;;;2.28;;
41711;SDS011;27399;51.516;13.670;2022-10-16T04:53:03;15.45;;;2.00;;
41711;SDS011;27399;51.516;13.670;2022-10-16T04:55:28;11.70;;;1.88;;
41711;SDS011;27399;51.516;13.670;2022-10-16T04:57:54;18.77;;;2.05;;
41711;SDS011;27399;51.516;13.670;2022-10-16T05:00:20;11.55;;;2.08;;
41711;SDS011;27399;51.516;13.670;2022-10-16T05:02:47;16.05;;;2.22;;
41711;SDS011;27399;51.516;13.670;2022-10-16T05:05:14;9.02;;;1.67;;
41711;SDS011;27399;51.516;13.670;2022-10-16T05:07:40;13.40;;;1.52;;
41711;SDS011;27399;51.516;13.670;2022-10-16T05:10:05;3.45;;;1.52;;
41711;SDS011;27399;51.516;13.670;2022-10-16T05:12:31;3.45;;;1.45;;
41711;SDS011;27399;51.516;13.670;2022-10-16T05:14:57;8.05;;;1.50;;
41711;SDS011;27399;51.516;13.670;2022-10-16T05:17:26;6.38;;;2.15;;
41711;SDS011;27399;51.516;13.670;2022-10-16T05:19:51;7.78;;;1.60;;
41711;SDS011;27399;51.516;13.670;2022-10-16T05:22:17;19.48;;;1.63;;
41711;SDS011;27399;51.516;13.670;2022-10-16T05:24:43;8.40;;;1.70;;
41711;SDS011;27399;51.516;13.670;2022-10-16T05:27:09;9.00;;;1.55;;
41711;SDS011;27399;51.516;13.670;2022-10-16T05:29:35;18.05;;;2.05;;
41711;SDS011;27399;51.516;13.670;2022-10-16T05:32:01;11.88;;;1.70;;
41711;SDS011;27399;51.516;13.670;2022-10-16T05:34:27;7.32;;;1.38;;
41711;SDS011;27399;51.516;13.670;2022-10-16T05:36:53;8.35;;;1.63;;
41711;SDS011;27399;51.516;13.670;2022-10-16T05:39:19;9.75;;;1.60;;
41711;SDS011;27399;51.516;13.670;2022-10-16T05:41:44;6.93;;;1.70;;
41711;SDS011;27399;51.516;13.670;2022-10-16T05:44:10;9.02;;;1.70;;
41711;SDS011;27399;51.516;13.670;2022-10-16T05:46:36;10.65;;;1.35;;
41711;SDS011;27399;51.516;13.670;2022-10-16T05:49:02;12.93;;;1.90;;
41711;SDS011;27399;51.516;13.670;2022-10-16T05:51:28;6.90;;;1.92;;
41711;SDS011;27399;51.516;13.670;2022-10-16T05:53:53;8.85;;;1.73;;
41711;SDS011;27399;51.516;13.670;2022-10-16T05:56:19;8.48;;;1.65;;
41711;SDS011;27399;51.516;13.670;2022-10-16T05:58:44;30.45;;;2.20;;
41711;SDS011;27399;51.516;13.670;2022-10-16T06:01:12;14.02;;;2.15;;
41711;SDS011;27399;51.516;13.670;2022-10-16T06:03:39;3.65;;;1.60;;
41711;SDS011;27399;51.516;13.670;2022-10-16T06:06:12;10.05;;;2.10;;
41711;SDS011;27399;51.516;13.670;2022-10-16T06:08:40;12.15;;;2.00;;
41711;SDS011;27399;51.516;13.670;2022-10-16T06:11:08;5.13;;;2.00;;
41711;SDS011;27399;51.516;13.670;2022-10-16T06:13:36;6.18;;;1.80;;
41711;SDS011;27399;51.516;13.670;2022-10-16T06:16:04;10.52;;;1.75;;
41711;SDS011;27399;51.516;13.670;2022-10-16T06:18:30;7.63;;;1.90;;
41711;SDS011;27399;51.516;13.670;2022-10-16T06:20:56;8.95;;;2.13;;
41711;SDS011;27399;51.516;13.670;2022-10-16T06:23:23;15.45;;;2.75;;
41711;SDS011;27399;51.516;13.670;2022-10-16T06:25:49;10.63;;;1.52;;
41711;SDS011;27399;51.516;13.670;2022-10-16T06:28:14;19.13;;;2.05;;
41711;SDS011;27399;51.516;13.670;2022-10-16T06:30:41;20.02;;;2.25;;
41711;SDS011;27399;51.516;13.670;2022-10-16T06:33:09;15.90;;;2.03;;
41711;SDS011;27399;51.516;13.670;2022-10-16T06:35:35;13.25;;;1.85;;
41711;SDS011;27399;51.516;13.670;2022-10-16T06:38:01;11.40;;;1.83;;
41711;SDS011;27399;51.516;13.670;2022-10-16T06:40:27;16.55;;;2.25;;
41711;SDS011;27399;51.516;13.670;2022-10-16T06:42:54;7.30;;;1.83;;
41711;SDS011;27399;51.516;13.670;2022-10-16T06:45:20;9.00;;;1.80;;
41711;SDS011;27399;51.516;13.670;2022-10-16T06:47:46;12.60;;;2.05;;
41711;SDS011;27399;51.516;13.670;2022-10-16T06:50:12;6.43;;;1.75;;
41711;SDS011;27399;51.516;13.670;2022-10-16T06:52:38;6.22;;;1.98;;
41711;SDS011;27399;51.516;13.670;2022-10-16T06:55:04;11.75;;;1.88;;
41711;SDS011;27399;51.516;13.670;2022-10-16T06:57:30;4.75;;;1.63;;
41711;SDS011;27399;51.516;13.670;2022-10-16T06:59:56;5.20;;;2.00;;
41711;SDS011;27399;51.516;13.670;2022-10-16T07:02:22;10.25;;;2.00;;
41711;SDS011;27399;51.516;13.670;2022-10-16T07:04:47;5.78;;;1.75;;
41711;SDS011;27399;51.516;13.670;2022-10-16T07:07:13;8.27;;;2.13;;
41711;SDS011;27399;51.516;13.670;2022-10-16T07:09:39;6.95;;;3.03;;
41711;SDS011;27399;51.516;13.670;2022-10-16T07:12:05;4.15;;;1.90;;
41711;SDS011;27399;51.516;13.670;2022-10-16T07:14:31;5.35;;;1.45;;
41711;SDS011;27399;51.516;13.670;2022-10-16T07:16:56;3.72;;;1.50;;
41711;SDS011;27399;51.516;13.670;2022-10-16T07:19:22;23.08;;;2.50;;
41711;SDS011;27399;51.516;13.670;2022-10-16T07:21:48;5.45;;;1.65;;
41711;SDS011;27399;51.516;13.670;2022-10-16T07:24:14;2.35;;;1.40;;
41711;SDS011;27399;51.516;13.670;2022-10-16T07:26:41;2.17;;;1.17;;
41711;SDS011;27399;51.516;13.670;2022-10-16T07:29:12;2.47;;;1.35;;
41711;SDS011;27399;51.516;13.670;2022-10-16T07:31:43;1.83;;;1.30;;
41711;SDS011;27399;51.516;13.670;2022-10-16T07:34:10;2.83;;;1.20;;
41711;SDS011;27399;51.516;13.670;2022-10-16T07:36:36;3.60;;;1.38;;
41711;SDS011;27399;51.516;13.670;2022-10-16T07:39:02;1.83;;;1.15;;
41711;SDS011;27399;51.516;13.670;2022-10-16T07:41:28;4.70;;;1.30;;
41711;SDS011;27399;51.516;13.670;2022-10-16T07:43:54;1.27;;;1.10;;
41711;SDS011;27399;51.516;13.670;2022-10-16T07:46:22;1.35;;;1.00;;
41711;SDS011;27399;51.516;13.670;2022-10-16T07:48:52;3.75;;;1.20;;
41711;SDS011;27399;51.516;13.670;2022-10-16T07:51:19;2.63;;;1.08;;
41711;SDS011;27399;51.516;13.670;2022-10-16T07:53:46;1.83;;;1.00;;
41711;SDS011;27399;51.516;13.670;2022-10-16T07:56:12;1.13;;;0.98;;
41711;SDS011;27399;51.516;13.670;2022-10-16T07:58:39;1.38;;;0.88;;
41711;SDS011;27399;51.516;13.670;2022-10-16T08:01:06;1.88;;;0.88;;
41711;SDS011;27399;51.516;13.670;2022-10-16T08:03:33;1.73;;;1.10;;
41711;SDS011;27399;51.516;13.670;2022-10-16T08:05:59;2.95;;;1.33;;
41711;SDS011;27399;51.516;13.670;2022-10-16T08:08:26;4.82;;;1.20;;
41711;SDS011;27399;51.516;13.670;2022-10-16T08:10:52;1.45;;;1.05;;
41711;SDS011;27399;51.516;13.670;2022-10-16T08:13:18;1.00;;;0.80;;
41711;SDS011;27399;51.516;13.670;2022-10-16T08:15:43;0.70;;;0.70;;
41711;SDS011;27399;51.516;13.670;2022-10-16T08:18:10;1.42;;;0.80;;
41711;SDS011;27399;51.516;13.670;2022-10-16T08:20:37;1.63;;;1.00;;
41711;SDS011;27399;51.516;13.670;2022-10-16T08:23:04;0.77;;;0.60;;
41711;SDS011;27399;51.516;13.670;2022-10-16T08:25:29;0.88;;;0.70;;
41711;SDS011;27399;51.516;13.670;2022-10-16T08:27:55;1.10;;;0.68;;
41711;SDS011;27399;51.516;13.670;2022-10-16T08:30:21;1.58;;;0.90;;
41711;SDS011;27399;51.516;13.670;2022-10-16T08:32:48;1.48;;;0.60;;
41711;SDS011;27399;51.516;13.670;2022-10-16T08:35:14;4.70;;;1.17;;
41711;SDS011;27399;51.516;13.670;2022-10-16T08:37:41;2.53;;;0.93;;
41711;SDS011;27399;51.516;13.670;2022-10-16T08:40:07;1.45;;;1.08;;
41711;SDS011;27399;51.516;13.670;2022-10-16T08:48:20;1.20;;;0.88;;
41711;SDS011;27399;51.516;13.670;2022-10-16T08:51:07;1.67;;;0.88;;
41711;SDS011;27399;51.516;13.670;2022-10-16T08:56:11;0.80;;;0.63;;
41711;SDS011;27399;51.516;13.670;2022-10-16T08:58:37;1.80;;;0.70;;
41711;SDS011;27399;51.516;13.670;2022-10-16T09:01:03;1.77;;;0.52;;
41711;SDS011;27399;51.516;13.670;2022-10-16T09:06:30;1.58;;;0.70;;
41711;SDS011;27399;51.516;13.670;2022-10-16T09:14:23;1.77;;;0.50;;
41711;SDS011;27399;51.516;13.670;2022-10-16T09:17:26;1.85;;;0.65;;
41711;SDS011;27399;51.516;13.670;2022-10-16T09:22:25;1.58;;;0.70;;
41711;SDS011;27399;51.516;13.670;2022-10-16T09:24:57;0.40;;;0.40;;
41711;SDS011;27399;51.516;13.670;2022-10-16T09:27:25;1.95;;;0.50;;
41711;SDS011;27399;51.516;13.670;2022-10-16T09:29:51;0.60;;;0.60;;
41711;SDS011;27399;51.516;13.670;2022-10-16T09:32:18;1.98;;;0.40;;
41711;SDS011;27399;51.516;13.670;2022-10-16T09:34:49;8.57;;;0.50;;
41711;SDS011;27399;51.516;13.670;2022-10-16T09:37:19;2.92;;;0.60;;
41711;SDS011;27399;51.516;13.670;2022-10-16T09:39:51;2.28;;;0.50;;
41711;SDS011;27399;51.516;13.670;2022-10-16T09:42:18;0.60;;;0.40;;
41711;SDS011;27399;51.516;13.670;2022-10-16T09:44:52;2.35;;;1.50;;
41711;SDS011;27399;51.516;13.670;2022-10-16T09:47:28;1.75;;;0.50;;
41711;SDS011;27399;51.516;13.670;2022-10-16T09:49:56;0.70;;;0.43;;
41711;SDS011;27399;51.516;13.670;2022-10-16T09:52:31;2.30;;;0.52;;
41711;SDS011;27399;51.516;13.670;2022-10-16T09:54:58;2.28;;;0.77;;
41711;SDS011;27399;51.516;13.670;2022-10-16T09:57:48;0.30;;;0.30;;
41711;SDS011;27399;51.516;13.670;2022-10-16T10:00:17;0.40;;;0.40;;
41711;SDS011;27399;51.516;13.670;2022-10-16T10:02:43;0.73;;;0.40;;
41711;SDS011;27399;51.516;13.670;2022-10-16T10:07:56;0.70;;;0.55;;
41711;SDS011;27399;51.516;13.670;2022-10-16T10:10:34;0.63;;;0.50;;
41711;SDS011;27399;51.516;13.670;2022-10-16T10:13:27;7.05;;;0.70;;
41711;SDS011;27399;51.516;13.670;2022-10-16T10:15:52;1.13;;;0.50;;
41711;SDS011;27399;51.516;13.670;2022-10-16T10:18:19;0.40;;;0.40;;
41711;SDS011;27399;51.516;13.670;2022-10-16T10:20:58;0.50;;;0.38;;
41711;SDS011;27399;51.516;13.670;2022-10-16T10:23:25;1.75;;;0.38;;
41711;SDS011;27399;51.516;13.670;2022-10-16T10:25:54;0.63;;;0.50;;
41711;SDS011;27399;51.516;13.670;2022-10-16T10:28:39;2.95;;;0.70;;
41711;SDS011;27399;51.516;13.670;2022-10-16T10:31:17;1.40;;;0.45;;
41711;SDS011;27399;51.516;13.670;2022-10-16T10:33:52;0.68;;;0.50;;
41711;SDS011;27399;51.516;13.670;2022-10-16T10:36:38;0.60;;;0.50;;
41711;SDS011;27399;51.516;13.670;2022-10-16T10:42:18;3.30;;;0.52;;
41711;SDS011;27399;51.516;13.670;2022-10-16T10:45:00;1.30;;;0.70;;
41711;SDS011;27399;51.516;13.670;2022-10-16T10:56:05;1.08;;;0.55;;
41711;SDS011;27399;51.516;13.670;2022-10-16T11:07:04;1.00;;;0.60;;
41711;SDS011;27399;51.516;13.670;2022-10-16T11:12:09;0.95;;;0.60;;
41711;SDS011;27399;51.516;13.670;2022-10-16T11:15:02;0.80;;;0.60;;
41711;SDS011;27399;51.516;13.670;2022-10-16T11:17:40;2.00;;;0.60;;
41711;SDS011;27399;51.516;13.670;2022-10-16T11:26:19;0.40;;;0.40;;
41711;SDS011;27399;51.516;13.670;2022-10-16T11:28:49;3.83;;;0.90;;
41711;SDS011;27399;51.516;13.670;2022-10-16T11:31:32;0.65;;;0.65;;
41711;SDS011;27399;51.516;13.670;2022-10-16T11:34:22;2.22;;;0.68;;
41711;SDS011;27399;51.516;13.670;2022-10-16T11:37:14;3.65;;;1.20;;
41711;SDS011;27399;51.516;13.670;2022-10-16T11:39:48;2.95;;;0.80;;
41711;SDS011;27399;51.516;13.670;2022-10-16T11:42:27;8.18;;;1.45;;
41711;SDS011;27399;51.516;13.670;2022-10-16T11:47:35;0.70;;;0.60;;
41711;SDS011;27399;51.516;13.670;2022-10-16T11:50:23;2.47;;;0.95;;
41711;SDS011;27399;51.516;13.670;2022-10-16T11:53:38;16.33;;;4.47;;
41711;SDS011;27399;51.516;13.670;2022-10-16T11:55:48;8.48;;;1.77;;
41711;SDS011;27399;51.516;13.670;2022-10-16T11:58:16;1.58;;;0.88;;
41711;SDS011;27399;51.516;13.670;2022-10-16T12:00:52;3.50;;;1.70;;
41711;SDS011;27399;51.516;13.670;2022-10-16T12:03:33;5.50;;;1.00;;
41711;SDS011;27399;51.516;13.670;2022-10-16T12:08:51;2.13;;;0.80;;
41711;SDS011;27399;51.516;13.670;2022-10-16T12:14:06;5.40;;;0.80;;
41711;SDS011;27399;51.516;13.670;2022-10-16T12:16:36;1.10;;;0.50;;
41711;SDS011;27399;51.516;13.670;2022-10-16T12:19:16;5.32;;;0.70;;
41711;SDS011;27399;51.516;13.670;2022-10-16T12:21:43;7.10;;;1.70;;
41711;SDS011;27399;51.516;13.670;2022-10-16T12:26:57;3.45;;;0.80;;
41711;SDS011;27399;51.516;13.670;2022-10-16T12:29:26;5.05;;;0.80;;
41711;SDS011;27399;51.516;13.670;2022-10-16T12:31:56;2.05;;;1.08;;
41711;SDS011;27399;51.516;13.670;2022-10-16T12:34:27;5.30;;;0.50;;
41711;SDS011;27399;51.516;13.670;2022-10-16T12:39:46;2.10;;;0.57;;
41711;SDS011;27399;51.516;13.670;2022-10-16T12:44:55;1.42;;;1.08;;
41711;SDS011;27399;51.516;13.670;2022-10-16T12:49:55;1.40;;;0.80;;
41711;SDS011;27399;51.516;13.670;2022-10-16T12:54:58;2.05;;;0.70;;
41711;SDS011;27399;51.516;13.670;2022-10-16T12:57:29;0.60;;;0.60;;
41711;SDS011;27399;51.516;13.670;2022-10-16T13:06:08;0.75;;;0.68;;
41711;SDS011;27399;51.516;13.670;2022-10-16T13:14:26;1.80;;;1.02;;
41711;SDS011;27399;51.516;13.670;2022-10-16T13:28:08;2.90;;;0.70;;
41711;SDS011;27399;51.516;13.670;2022-10-16T13:30:39;0.45;;;0.45;;
41711;SDS011;27399;51.516;13.670;2022-10-16T13:33:21;3.40;;;0.75;;
41711;SDS011;27399;51.516;13.670;2022-10-16T13:36:01;0.98;;;0.52;;
41711;SDS011;27399;51.516;13.670;2022-10-16T13:38:29;4.40;;;0.75;;
41711;SDS011;27399;51.516;13.670;2022-10-16T13:41:01;1.45;;;0.50;;
41711;SDS011;27399;51.516;13.670;2022-10-16T13:46:03;1.77;;;0.65;;
41711;SDS011;27399;51.516;13.670;2022-10-16T13:48:31;3.63;;;0.95;;
41711;SDS011;27399;51.516;13.670;2022-10-16T13:51:02;6.28;;;0.90;;
41711;SDS011;27399;51.516;13.670;2022-10-16T13:53:37;2.25;;;0.68;;
41711;SDS011;27399;51.516;13.670;2022-10-16T13:56:04;1.45;;;0.70;;
41711;SDS011;27399;51.516;13.670;2022-10-16T13:58:31;0.85;;;0.77;;
41711;SDS011;27399;51.516;13.670;2022-10-16T14:04:59;3.60;;;1.13;;
41711;SDS011;27399;51.516;13.670;2022-10-16T14:07:30;1.45;;;0.80;;
41711;SDS011;27399;51.516;13.670;2022-10-16T14:10:03;2.10;;;0.70;;
41711;SDS011;27399;51.516;13.670;2022-10-16T14:12:45;1.35;;;0.73;;
41711;SDS011;27399;51.516;13.670;2022-10-16T14:15:19;0.70;;;0.70;;
41711;SDS011;27399;51.516;13.670;2022-10-16T14:17:45;2.47;;;0.90;;
41711;SDS011;27399;51.516;13.670;2022-10-16T14:20:15;2.03;;;0.88;;
41711;SDS011;27399;51.516;13.670;2022-10-16T14:22:41;3.38;;;0.80;;
41711;SDS011;27399;51.516;13.670;2022-10-16T14:27:45;1.23;;;0.73;;
41711;SDS011;27399;51.516;13.670;2022-10-16T14:30:21;1.33;;;0.70;;
41711;SDS011;27399;51.516;13.670;2022-10-16T14:32:54;5.05;;;1.17;;
41711;SDS011;27399;51.516;13.670;2022-10-16T14:35:26;3.00;;;0.65;;
41711;SDS011;27399;51.516;13.670;2022-10-16T14:37:57;0.98;;;0.80;;
41711;SDS011;27399;51.516;13.670;2022-10-16T14:40:25;2.90;;;0.75;;
41711;SDS011;27399;51.516;13.670;2022-10-16T14:42:55;3.30;;;0.85;;
41711;SDS011;27399;51.516;13.670;2022-10-16T14:45:22;3.75;;;0.80;;
41711;SDS011;27399;51.516;13.670;2022-10-16T14:47:55;8.48;;;1.42;;
41711;SDS011;27399;51.516;13.670;2022-10-16T14:50:22;6.07;;;0.95;;
41711;SDS011;27399;51.516;13.670;2022-10-16T14:52:48;1.00;;;0.90;;
41711;SDS011;27399;51.516;13.670;2022-10-16T14:55:14;7.25;;;1.35;;
41711;SDS011;27399;51.516;13.670;2022-10-16T14:57:40;9.35;;;1.23;;
41711;SDS011;27399;51.516;13.670;2022-10-16T15:02:44;16.70;;;1.38;;
41711;SDS011;27399;51.516;13.670;2022-10-16T15:05:26;13.18;;;1.67;;
41711;SDS011;27399;51.516;13.670;2022-10-16T15:07:53;8.80;;;1.40;;
41711;SDS011;27399;51.516;13.670;2022-10-16T15:10:20;13.50;;;1.70;;
41711;SDS011;27399;51.516;13.670;2022-10-16T15:12:48;6.60;;;1.60;;
41711;SDS011;27399;51.516;13.670;2022-10-16T15:17:51;11.70;;;1.25;;
41711;SDS011;27399;51.516;13.670;2022-10-16T15:20:20;3.85;;;1.50;;
41711;SDS011;27399;51.516;13.670;2022-10-16T15:22:46;3.17;;;1.25;;
41711;SDS011;27399;51.516;13.670;2022-10-16T15:28:07;3.63;;;1.25;;
41711;SDS011;27399;51.516;13.670;2022-10-16T15:30:34;3.33;;;1.40;;
41711;SDS011;27399;51.516;13.670;2022-10-16T15:33:01;6.53;;;1.35;;
41711;SDS011;27399;51.516;13.670;2022-10-16T15:35:28;15.95;;;2.25;;
41711;SDS011;27399;51.516;13.670;2022-10-16T15:37:54;7.63;;;1.45;;
41711;SDS011;27399;51.516;13.670;2022-10-16T15:40:20;19.25;;;2.08;;
41711;SDS011;27399;51.516;13.670;2022-10-16T15:42:47;14.48;;;2.78;;
41711;SDS011;27399;51.516;13.670;2022-10-16T15:45:13;10.68;;;1.98;;
41711;SDS011;27399;51.516;13.670;2022-10-16T15:47:42;14.50;;;2.55;;
41711;SDS011;27399;51.516;13.670;2022-10-16T15:50:17;19.70;;;2.17;;
41711;SDS011;27399;51.516;13.670;2022-10-16T15:52:43;17.05;;;1.85;;
41711;SDS011;27399;51.516;13.670;2022-10-16T15:55:09;20.15;;;2.08;;
41711;SDS011;27399;51.516;13.670;2022-10-16T15:57:37;19.45;;;1.95;;
41711;SDS011;27399;51.516;13.670;2022-10-16T16:00:05;13.88;;;1.73;;
41711;SDS011;27399;51.516;13.670;2022-10-16T16:02:36;13.25;;;1.67;;
41711;SDS011;27399;51.516;13.670;2022-10-16T16:05:02;14.63;;;1.95;;
41711;SDS011;27399;51.516;13.670;2022-10-16T16:07:28;11.68;;;1.52;;
41711;SDS011;27399;51.516;13.670;2022-10-16T16:09:54;17.55;;;2.25;;
41711;SDS011;27399;51.516;13.670;2022-10-16T16:12:19;20.02;;;2.70;;
41711;SDS011;27399;51.516;13.670;2022-10-16T16:14:45;15.75;;;1.70;;
41711;SDS011;27399;51.516;13.670;2022-10-16T16:17:13;22.92;;;2.20;;
41711;SDS011;27399;51.516;13.670;2022-10-16T16:19:39;6.18;;;2.05;;
41711;SDS011;27399;51.516;13.670;2022-10-16T16:22:05;10.25;;;2.22;;
41711;SDS011;27399;51.516;13.670;2022-10-16T16:24:30;16.10;;;2.10;;
41711;SDS011;27399;51.516;13.670;2022-10-16T16:26:56;12.90;;;1.63;;
41711;SDS011;27399;51.516;13.670;2022-10-16T16:29:21;13.02;;;1.83;;
41711;SDS011;27399;51.516;13.670;2022-10-16T16:31:47;2.60;;;1.35;;
41711;SDS011;27399;51.516;13.670;2022-10-16T16:34:13;10.38;;;1.60;;
41711;SDS011;27399;51.516;13.670;2022-10-16T16:36:39;18.88;;;2.45;;
41711;SDS011;27399;51.516;13.670;2022-10-16T16:39:05;14.55;;;2.05;;
41711;SDS011;27399;51.516;13.670;2022-10-16T16:41:32;12.73;;;1.73;;
41711;SDS011;27399;51.516;13.670;2022-10-16T16:44:02;8.00;;;2.63;;
41711;SDS011;27399;51.516;13.670;2022-10-16T16:46:29;5.57;;;1.52;;
41711;SDS011;27399;51.516;13.670;2022-10-16T16:48:57;5.00;;;1.30;;
41711;SDS011;27399;51.516;13.670;2022-10-16T16:51:23;4.90;;;1.77;;
41711;SDS011;27399;51.516;13.670;2022-10-16T16:53:50;3.00;;;1.50;;